Time;durP1;ratioP1;P1;durP2;ratioP2;P2;SDS_P1;SDS_P2;PMS_P1;PMS_P2;Temp;Humidity;BMP_temperature;BMP_pressure;BME280_temperature;BME280_humidity;BME280_pressure;Samples;Min_cycle;Max_cycle;Signal;HPM_P1;HPM_P2
2023/04/30 00:01:41;;;;;;;9.40;2.43;;;8.20;99.90;;;;;;5086864;28;20048;-69
2023/04/30 00:04:07;;;;;;;6.20;1.90;;;8.20;99.90;;;;;;5072244;28;20197;-69
2023/04/30 00:06:32;;;;;;;4.50;1.80;;;8.20;99.90;;;;;;5062495;28;20237;-69
2023/04/30 00:08:58;;;;;;;8.03;2.40;;;8.20;99.90;;;;;;5065066;28;20043;-70
2023/04/30 00:11:24;;;;;;;5.93;2.27;;;8.20;99.90;;;;;;5053615;28;20288;-69
2023/04/30 00:24:39;;;;;;;5.85;1.88;;;7.90;99.90;;;;;;5061992;22;20150;-70
2023/04/30 00:27:05;;;;;;;7.63;2.27;;;7.90;99.90;;;;;;5031438;28;20411;-70
2023/04/30 00:29:30;;;;;;;3.93;2.10;;;7.90;99.90;;;;;;5032639;28;20454;-79
2023/04/30 00:31:56;;;;;;;6.00;1.90;;;7.90;99.90;;;;;;5031966;28;20055;-71
2023/04/30 00:34:21;;;;;;;5.20;2.03;;;7.80;99.90;;;;;;5030826;28;20442;-70
2023/04/30 00:36:47;;;;;;;8.87;3.27;;;7.80;99.90;;;;;;5020536;28;20469;-71
2023/04/30 00:39:12;;;;;;;4.67;2.20;;;7.80;99.90;;;;;;5050646;28;20032;-71
2023/04/30 00:41:39;;;;;;;7.50;2.70;;;7.80;99.90;;;;;;5046208;28;20040;-70
2023/04/30 00:44:05;;;;;;;5.82;2.45;;;7.70;99.90;;;;;;5031808;28;20431;-71
2023/04/30 00:46:31;;;;;;;5.07;2.13;;;7.70;99.90;;;;;;5040707;28;20044;-71
2023/04/30 00:48:56;;;;;;;7.37;2.00;;;7.70;99.90;;;;;;5028668;28;20067;-70
2023/04/30 00:51:22;;;;;;;9.47;2.40;;;7.70;99.90;;;;;;5029508;28;20048;-70
2023/04/30 00:53:48;;;;;;;6.45;2.35;;;7.60;99.90;;;;;;5048359;28;20435;-77
2023/04/30 00:56:17;;;;;;;11.32;2.47;;;7.60;99.90;;;;;;5035954;28;20072;-70
2023/04/30 00:58:44;;;;;;;7.60;2.25;;;7.60;99.90;;;;;;5035488;28;20123;-70
2023/04/30 01:01:10;;;;;;;;;;;7.60;99.90;;;;;;5041646;28;20486;-70
2023/04/30 01:03:35;;;;;;;4.35;2.47;;;7.60;99.90;;;;;;5019923;28;20059;-70
2023/04/30 01:06:02;;;;;;;7.97;2.70;;;7.60;99.90;;;;;;5032474;28;20044;-70
2023/04/30 01:08:29;;;;;;;10.15;2.53;;;7.60;99.90;;;;;;5047464;28;20047;-71
2023/04/30 01:11:23;;;;;;;9.93;2.53;;;7.60;99.90;;;;;;5045221;28;20482;-70
2023/04/30 01:14:12;;;;;;;7.10;2.22;;;7.60;99.90;;;;;;5032887;28;20356;-70
2023/04/30 01:17:11;;;;;;;8.68;2.53;;;7.60;99.90;;;;;;5035917;28;20140;-70
2023/04/30 01:19:42;;;;;;;6.50;2.17;;;7.60;99.90;;;;;;5040278;28;20236;-70
2023/04/30 01:22:20;;;;;;;12.82;3.05;;;7.60;99.90;;;;;;5036364;28;20043;-70
2023/04/30 01:25:05;;;;;;;8.38;2.60;;;7.60;99.90;;;;;;5047746;28;20192;-70
2023/04/30 01:27:49;;;;;;;7.03;2.75;;;7.60;99.90;;;;;;5037493;28;20378;-70
2023/04/30 01:30:17;;;;;;;4.60;2.67;;;7.60;99.90;;;;;;5043649;28;20048;-73
2023/04/30 01:32:43;;;;;;;6.72;2.45;;;7.60;99.90;;;;;;5015434;28;20094;-73
2023/04/30 01:35:08;;;;;;;9.00;2.80;;;7.60;99.90;;;;;;5030722;28;20047;-72
2023/04/30 01:38:14;;;;;;;15.23;2.50;;;7.60;99.90;;;;;;5029849;28;20198;-72
2023/04/30 01:40:46;;;;;;;8.85;2.88;;;7.60;99.90;;;;;;5053886;28;20480;-73
2023/04/30 01:43:38;;;;;;;6.78;2.00;;;7.60;99.90;;;;;;5032491;28;20048;-73
2023/04/30 01:46:26;;;;;;;7.30;2.08;;;7.70;99.90;;;;;;5036137;28;20048;-73
2023/04/30 01:49:16;;;;;;;10.82;2.45;;;7.70;99.90;;;;;;5033292;28;20342;-73
2023/04/30 01:51:47;;;;;;;7.85;2.20;;;7.70;99.90;;;;;;5038501;28;20040;-73
2023/04/30 01:54:39;;;;;;;5.97;2.00;;;7.80;99.90;;;;;;5028424;28;20103;-73
2023/04/30 01:57:07;;;;;;;7.13;2.30;;;7.80;99.90;;;;;;5037183;28;20044;-73
2023/04/30 01:59:37;;;;;;;7.45;2.10;;;7.90;99.90;;;;;;5045167;28;20049;-72
2023/04/30 02:02:03;;;;;;;5.15;2.22;;;7.80;99.90;;;;;;5043559;28;20067;-72
2023/04/30 02:04:28;;;;;;;3.00;1.70;;;7.90;99.90;;;;;;5014640;28;20358;-73
2023/04/30 02:06:54;;;;;;;7.10;1.97;;;8.00;99.90;;;;;;5054443;28;20055;-72
2023/04/30 02:09:22;;;;;;;4.80;2.38;;;8.00;99.90;;;;;;5056315;28;20045;-73
2023/04/30 02:11:49;;;;;;;6.72;2.15;;;8.00;99.90;;;;;;5022415;28;20072;-72
2023/04/30 02:14:14;;;;;;;5.80;2.33;;;8.00;99.90;;;;;;5029884;28;20048;-73
2023/04/30 02:16:40;;;;;;;11.00;2.63;;;8.10;99.90;;;;;;5041494;28;20110;-72
2023/04/30 02:19:05;;;;;;;6.00;2.50;;;8.10;99.90;;;;;;5043211;28;20079;-73
2023/04/30 02:21:31;;;;;;;6.93;2.20;;;8.10;99.90;;;;;;5053389;28;20136;-72
2023/04/30 02:23:57;;;;;;;4.57;1.83;;;8.10;99.90;;;;;;5034827;28;20292;-72
2023/04/30 02:26:22;;;;;;;5.03;1.97;;;8.10;99.90;;;;;;5046654;28;20068;-72
2023/04/30 02:28:48;;;;;;;10.30;2.33;;;8.20;99.90;;;;;;5041277;28;20066;-73
2023/04/30 02:31:14;;;;;;;6.37;2.20;;;8.20;99.90;;;;;;5017786;28;20036;-73
2023/04/30 02:33:39;;;;;;;3.73;1.90;;;8.20;99.90;;;;;;5038055;28;20125;-72
2023/04/30 02:36:05;;;;;;;6.50;1.77;;;8.20;99.90;;;;;;5037634;28;20044;-73
2023/04/30 02:38:31;;;;;;;5.27;1.67;;;8.20;99.90;;;;;;5039353;28;20177;-73
2023/04/30 02:40:56;;;;;;;3.07;1.97;;;8.20;99.90;;;;;;5031416;28;20329;-73
2023/04/30 02:43:22;;;;;;;4.57;1.50;;;8.20;99.90;;;;;;5049978;28;20434;-72
2023/04/30 02:45:47;;;;;;;7.50;1.60;;;8.20;99.90;;;;;;5018939;28;20498;-73
2023/04/30 02:48:13;;;;;;;5.70;1.90;;;8.20;99.90;;;;;;5037748;28;20182;-73
2023/04/30 02:50:39;;;;;;;5.75;2.20;;;8.20;99.90;;;;;;5018073;28;20124;-73
2023/04/30 02:53:05;;;;;;;6.30;1.70;;;8.10;99.90;;;;;;5039569;28;20522;-73
2023/04/30 02:55:31;;;;;;;8.33;2.07;;;8.10;99.90;;;;;;5038770;28;20086;-73
2023/04/30 02:57:57;;;;;;;;;;;8.20;99.90;;;;;;5034363;28;20105;-73
2023/04/30 03:00:22;;;;;;;7.95;1.50;;;8.20;99.90;;;;;;5030869;28;19924;-72
2023/04/30 03:02:48;;;;;;;4.87;1.90;;;8.10;99.90;;;;;;5035237;28;20037;-72
2023/04/30 03:05:14;;;;;;;6.43;1.63;;;8.10;99.90;;;;;;5036675;28;20136;-72
2023/04/30 03:07:40;;;;;;;5.57;2.50;;;8.10;99.90;;;;;;5048268;28;20152;-73
2023/04/30 03:10:07;;;;;;;4.15;1.67;;;8.10;99.90;;;;;;5038194;28;20044;-72
2023/04/30 03:12:32;;;;;;;5.57;1.63;;;8.10;99.90;;;;;;5039258;28;20037;-72
2023/04/30 03:14:58;;;;;;;6.07;1.57;;;8.10;99.90;;;;;;5040303;28;20059;-73
2023/04/30 03:17:24;;;;;;;6.27;1.50;;;8.10;99.90;;;;;;5038699;28;20040;-73
2023/04/30 03:19:50;;;;;;;5.83;1.87;;;8.10;99.90;;;;;;5035428;28;20399;-71
2023/04/30 03:22:18;;;;;;;4.57;1.70;;;8.00;99.90;;;;;;5018570;28;20529;-71
2023/04/30 03:24:44;;;;;;;5.85;2.13;;;8.00;99.90;;;;;;5033513;28;20122;-72
2023/04/30 03:27:10;;;;;;;6.70;2.08;;;7.90;99.90;;;;;;5035710;28;20095;-71
2023/04/30 03:29:35;;;;;;;5.97;1.97;;;7.90;99.90;;;;;;5040439;28;20073;-71
2023/04/30 03:32:01;;;;;;;4.43;1.83;;;7.90;99.90;;;;;;5034212;28;20048;-71
2023/04/30 03:34:26;;;;;;;5.77;1.93;;;7.90;99.90;;;;;;5035040;28;20059;-72
2023/04/30 03:36:52;;;;;;;4.53;1.90;;;7.80;99.90;;;;;;5039287;28;20063;-71
2023/04/30 03:39:18;;;;;;;7.67;2.30;;;7.80;99.90;;;;;;5043435;28;20037;-71
2023/04/30 03:41:43;;;;;;;11.53;2.73;;;7.80;99.90;;;;;;5037714;28;20046;-72
2023/04/30 03:44:14;;;;;;;8.37;2.47;;;7.70;99.90;;;;;;5052354;28;20296;-71
2023/04/30 03:46:43;;;;;;;7.53;2.15;;;7.70;99.90;;;;;;5028275;28;20131;-71
2023/04/30 03:49:09;;;;;;;7.03;2.92;;;7.70;99.90;;;;;;5038544;28;20059;-71
2023/04/30 03:51:38;;;;;;;7.07;2.38;;;7.60;99.90;;;;;;5037618;28;20044;-71
2023/04/30 03:54:07;;;;;;;6.88;2.97;;;7.60;99.90;;;;;;5057552;28;20036;-71
2023/04/30 03:56:34;;;;;;;7.50;2.60;;;7.60;99.90;;;;;;5017972;28;20132;-72
2023/04/30 03:59:00;;;;;;;6.93;2.15;;;7.50;99.90;;;;;;5035673;28;20047;-71
2023/04/30 04:01:26;;;;;;;6.18;2.53;;;7.50;99.90;;;;;;5023100;28;20048;-71
2023/04/30 04:03:52;;;;;;;6.40;2.53;;;7.50;99.90;;;;;;5039326;28;20045;-72
2023/04/30 04:06:18;;;;;;;7.78;2.40;;;7.40;99.90;;;;;;5030899;28;20036;-71
2023/04/30 04:08:44;;;;;;;11.23;2.73;;;7.40;99.90;;;;;;5028677;28;20147;-71
2023/04/30 04:11:10;;;;;;;3.63;2.50;;;7.40;99.90;;;;;;5056117;28;20462;-71
2023/04/30 04:13:36;;;;;;;;;;;7.30;99.90;;;;;;5038139;28;20506;-71
2023/04/30 04:16:02;;;;;;;4.63;2.33;;;7.30;99.90;;;;;;5051019;28;19916;-71
2023/04/30 04:18:27;;;;;;;6.50;2.37;;;7.30;99.90;;;;;;5029301;28;20124;-71
2023/04/30 04:20:55;;;;;;;7.60;2.73;;;7.30;99.90;;;;;;5036630;28;20392;-71
2023/04/30 04:23:21;;;;;;;7.05;2.30;;;7.20;99.90;;;;;;5023131;28;20200;-71
2023/04/30 04:25:48;;;;;;;6.20;2.25;;;7.20;99.90;;;;;;5046653;28;20044;-71
2023/04/30 04:28:15;;;;;;;5.80;2.40;;;7.20;99.90;;;;;;5031967;28;20051;-71
2023/04/30 04:30:41;;;;;;;7.82;2.90;;;7.20;99.90;;;;;;5025994;28;20107;-71
2023/04/30 04:33:07;;;;;;;10.20;2.83;;;7.20;99.90;;;;;;5044290;28;20263;-72
2023/04/30 04:35:33;;;;;;;9.57;2.70;;;7.20;99.90;;;;;;5012008;28;20043;-71
2023/04/30 04:38:00;;;;;;;6.43;2.93;;;7.20;99.90;;;;;;5023303;28;20040;-72
2023/04/30 04:40:26;;;;;;;6.72;2.28;;;7.20;99.90;;;;;;5028842;28;20049;-72
2023/04/30 04:42:52;;;;;;;7.53;2.28;;;7.20;99.90;;;;;;5049582;28;20631;-71
2023/04/30 04:45:21;;;;;;;8.10;2.63;;;7.20;99.90;;;;;;5049911;28;20072;-72
2023/04/30 04:47:47;;;;;;;3.35;1.88;;;7.30;99.90;;;;;;5040064;28;20064;-71
2023/04/30 04:50:13;;;;;;;3.67;2.03;;;7.40;99.90;;;;;;5030187;28;20036;-72
2023/04/30 04:52:39;;;;;;;9.27;2.10;;;7.30;99.90;;;;;;5052215;28;20043;-71
2023/04/30 04:55:06;;;;;;;6.18;2.33;;;7.40;99.90;;;;;;5054127;28;20136;-72
2023/04/30 04:57:31;;;;;;;4.57;1.95;;;7.40;99.90;;;;;;5034409;28;20063;-71
2023/04/30 04:59:57;;;;;;;5.67;2.30;;;7.50;99.90;;;;;;5040024;28;20418;-71
2023/04/30 05:02:23;;;;;;;7.37;2.50;;;7.50;99.90;;;;;;5048847;28;20047;-72
2023/04/30 05:04:49;;;;;;;7.57;2.17;;;7.60;99.90;;;;;;5044869;28;20045;-71
2023/04/30 05:07:18;;;;;;;7.13;2.08;;;7.60;99.90;;;;;;5055932;28;20052;-71
2023/04/30 05:09:47;;;;;;;6.45;1.80;;;7.70;99.90;;;;;;5055854;28;20051;-71
2023/04/30 05:12:13;;;;;;;6.85;1.75;;;7.60;99.90;;;;;;5015134;28;20052;-71
2023/04/30 05:14:39;;;;;;;8.82;2.13;;;7.70;99.90;;;;;;5025605;28;20382;-71
2023/04/30 05:17:05;;;;;;;6.80;2.83;;;7.70;99.90;;;;;;5045953;28;20056;-72
2023/04/30 05:19:31;;;;;;;6.60;1.88;;;7.80;99.90;;;;;;5016852;28;20132;-72
2023/04/30 05:21:57;;;;;;;8.43;2.47;;;7.90;99.90;;;;;;5029203;28;20044;-71
2023/04/30 05:24:23;;;;;;;7.73;2.20;;;7.90;99.90;;;;;;5036478;28;20510;-71
2023/04/30 05:26:48;;;;;;;3.63;1.70;;;8.00;99.90;;;;;;5030228;28;20044;-71
2023/04/30 05:29:14;;;;;;;13.13;2.70;;;8.10;99.90;;;;;;5040207;28;20295;-72
2023/04/30 05:31:40;;;;;;;5.73;2.20;;;8.10;99.90;;;;;;5046280;28;20059;-71
2023/04/30 05:34:06;;;;;;;8.23;2.60;;;8.10;99.90;;;;;;5037311;28;20088;-71
2023/04/30 05:36:32;;;;;;;6.07;2.17;;;8.20;99.90;;;;;;5026730;28;20490;-72
2023/04/30 05:38:58;;;;;;;8.97;2.80;;;8.20;99.90;;;;;;5047203;28;20120;-71
2023/04/30 05:41:23;;;;;;;6.72;2.33;;;8.30;99.90;;;;;;5017499;28;20329;-72
2023/04/30 05:43:49;;;;;;;5.80;2.00;;;8.30;99.90;;;;;;5026220;28;23993;-72
2023/04/30 05:46:15;;;;;;;7.87;2.47;;;8.30;99.90;;;;;;5022054;28;20044;-71
2023/04/30 05:48:40;;;;;;;3.30;1.80;;;8.40;99.90;;;;;;5034390;28;20363;-72
2023/04/30 05:51:06;;;;;;;3.83;1.73;;;8.50;99.90;;;;;;5038412;28;20102;-71
2023/04/30 05:53:32;;;;;;;6.53;2.70;;;8.50;99.90;;;;;;5055301;28;20378;-71
2023/04/30 05:55:57;;;;;;;5.27;1.60;;;8.50;99.90;;;;;;5042474;28;20048;-71
2023/04/30 05:58:24;;;;;;;6.50;1.87;;;8.50;99.90;;;;;;5023330;28;20604;-71
2023/04/30 06:00:53;;;;;;;6.25;2.47;;;8.50;99.90;;;;;;5023561;28;20136;-72
2023/04/30 06:03:19;;;;;;;3.55;1.90;;;8.60;99.90;;;;;;5021981;28;20486;-71
2023/04/30 06:05:45;;;;;;;7.65;2.03;;;8.70;99.90;;;;;;5066235;28;20036;-72
2023/04/30 06:08:11;;;;;;;;;;;8.70;99.90;;;;;;5042780;28;20049;-71
2023/04/30 06:10:37;;;;;;;5.57;1.90;;;8.80;99.90;;;;;;5045249;28;20011;-71
2023/04/30 06:13:06;;;;;;;7.07;2.20;;;8.90;99.90;;;;;;5051017;22;20070;-83
2023/04/30 06:15:32;;;;;;;8.88;2.20;;;8.90;99.90;;;;;;5000058;28;20044;-84
2023/04/30 06:17:58;;;;;;;10.30;2.40;;;8.90;99.90;;;;;;5007973;28;20052;-83
2023/04/30 06:20:27;;;;;;;7.90;2.30;;;8.90;99.90;;;;;;4994614;28;20456;-84
2023/04/30 06:22:55;;;;;;;3.47;1.92;;;8.90;99.90;;;;;;5000088;28;20440;-83
2023/04/30 06:25:27;;;;;;;5.47;2.10;;;8.90;99.90;;;;;;5004058;28;20056;-83
2023/04/30 06:27:58;;;;;;;9.45;2.85;;;9.00;99.90;;;;;;5012830;28;20116;-85
2023/04/30 06:30:30;;;;;;;8.52;2.50;;;9.00;99.90;;;;;;5001746;28;20477;-83
2023/04/30 06:32:56;;;;;;;5.20;1.80;;;9.00;99.90;;;;;;4997336;28;20046;-84
2023/04/30 06:35:24;;;;;;;7.85;2.20;;;9.10;99.90;;;;;;4982638;28;20094;-84
2023/04/30 06:37:50;;;;;;;6.10;2.22;;;9.10;99.90;;;;;;5001043;28;20151;-83
2023/04/30 06:40:19;;;;;;;6.20;2.05;;;9.20;99.90;;;;;;4981048;28;20038;-83
2023/04/30 06:42:48;;;;;;;8.82;2.58;;;9.20;99.90;;;;;;4984228;28;20038;-85
2023/04/30 06:45:14;;;;;;;6.93;2.20;;;9.30;99.90;;;;;;5008193;28;20429;-85
2023/04/30 06:47:44;;;;;;;5.73;2.30;;;9.30;99.90;;;;;;4991727;28;20128;-86
2023/04/30 06:50:16;;;;;;;8.00;2.75;;;9.40;99.90;;;;;;5001611;28;20041;-84
2023/04/30 06:52:42;;;;;;;7.95;2.22;;;9.40;99.90;;;;;;5008447;28;20281;-83
2023/04/30 06:55:11;;;;;;;5.22;2.25;;;9.40;99.90;;;;;;5004921;28;20099;-85
2023/04/30 06:57:36;;;;;;;6.05;2.00;;;9.50;99.90;;;;;;4988760;28;20049;-84
2023/04/30 07:00:15;;;;;;;5.13;2.27;;;9.40;99.90;;;;;;5004026;28;20134;-84
2023/04/30 07:02:50;;;;;;;5.85;1.75;;;9.50;99.90;;;;;;5011224;28;20041;-83
2023/04/30 07:05:32;;;;;;;;;;;;;;;;;;;;;
2023/04/30 07:08:11;;;;;;;11.70;2.20;;;9.60;99.90;;;;;;5018067;28;20038;-84
2023/04/30 07:10:50;;;;;;;8.18;2.13;;;9.60;99.90;;;;;;4983134;28;20061;-84
2023/04/30 07:13:28;;;;;;;5.55;1.80;;;9.70;99.90;;;;;;5003689;28;20038;-83
2023/04/30 07:16:22;;;;;;;5.25;1.67;;;9.80;99.90;;;;;;4999438;28;20041;-83
2023/04/30 07:18:51;;;;;;;5.03;1.75;;;9.80;99.90;;;;;;4980162;28;20073;-84
2023/04/30 07:21:20;;;;;;;7.82;2.00;;;9.90;99.90;;;;;;4987300;28;20132;-84
2023/04/30 07:23:47;;;;;;;3.35;1.92;;;10.00;99.90;;;;;;5007721;28;20049;-84
2023/04/30 07:26:27;;;;;;;7.22;2.78;;;10.00;99.90;;;;;;5016257;28;20076;-83
2023/04/30 07:28:55;;;;;;;11.50;2.83;;;10.00;99.90;;;;;;4988133;28;20042;-84
2023/04/30 07:31:27;;;;;;;8.88;2.45;;;10.00;99.90;;;;;;5001316;28;20412;-83
2023/04/30 07:33:58;;;;;;;8.13;2.20;;;10.10;99.90;;;;;;4994764;28;20042;-84
2023/04/30 07:36:58;;;;;;;5.35;2.20;;;10.20;99.90;;;;;;4983167;28;20034;-84
2023/04/30 07:39:30;;;;;;;6.13;2.33;;;10.20;99.90;;;;;;5013312;28;20034;-83
2023/04/30 07:41:56;;;;;;;9.60;1.90;;;10.30;99.90;;;;;;5002971;28;20125;-84
2023/04/30 07:44:22;;;;;;;6.35;1.83;;;10.30;99.90;;;;;;4999229;28;20065;-85
2023/04/30 07:46:53;;;;;;;6.40;2.53;;;10.20;99.90;;;;;;4991933;28;20090;-85
2023/04/30 07:49:22;;;;;;;4.80;1.65;;;10.20;99.90;;;;;;4984784;28;20108;-82
2023/04/30 07:51:50;;;;;;;3.28;1.40;;;10.30;99.90;;;;;;4974614;28;20049;-83
2023/04/30 07:54:29;;;;;;;10.05;1.88;;;10.30;99.90;;;;;;4990996;28;20065;-84
2023/04/30 07:57:12;;;;;;;;;;;;;;;;;;;;;
2023/04/30 07:59:47;;;;;;;6.90;1.45;;;10.30;99.90;;;;;;5003822;28;20374;-82
2023/04/30 08:02:16;;;;;;;5.82;2.10;;;10.30;99.90;;;;;;5015891;28;20524;-85
2023/04/30 08:04:57;;;;;;;;;;;;;;;;;;;;;
2023/04/30 08:07:48;;;;;;;8.20;1.90;;;10.40;99.90;;;;;;5007205;28;20132;-84
2023/04/30 08:10:41;;;;;;;9.00;1.73;;;10.50;99.90;;;;;;5003252;28;20489;-83
2023/04/30 08:16:19;;;;;;;10.13;1.98;;;10.60;99.90;;;;;;5000029;28;20108;-82
2023/04/30 08:19:13;;;;;;;4.80;1.77;;;10.70;99.90;;;;;;4979376;28;20491;-85
2023/04/30 08:22:15;;;;;;;6.70;1.98;;;10.80;99.90;;;;;;4992195;28;20041;-86
2023/04/30 08:25:31;;;;;;;9.05;2.13;;;10.90;99.90;;;;;;4951023;28;20347;-85
2023/04/30 08:28:24;;;;;;;7.85;1.85;;;11.00;99.90;;;;;;4980683;28;20128;-85
2023/04/30 08:31:23;;;;;;;7.30;1.90;;;11.00;99.90;;;;;;4981562;28;20050;-85
2023/04/30 08:34:47;;;;;;;7.13;2.17;;;11.20;99.90;;;;;;4909327;29;20052;-84
2023/04/30 08:41:25;;;;;;;5.72;2.05;;;11.40;99.90;;;;;;4971279;28;20050;-84
2023/04/30 08:44:52;;;;;;;;;;;;;;;;;;;;;
2023/04/30 08:47:58;;;;;;;6.05;2.03;;;11.60;99.90;;;;;;4985127;28;20057;-85
2023/04/30 08:58:47;;;;;;;;;;;;;;;;;;;;;
2023/04/30 09:02:20;;;;;;;;;;;;;;;;;;;;;
2023/04/30 09:05:59;;;;;;;10.05;2.33;;;12.10;99.90;;;;;;4829870;29;20103;-85
2023/04/30 09:09:26;;;;;;;8.98;1.90;;;12.10;99.90;;;;;;4869915;29;20037;-83
2023/04/30 09:14:58;;;;;;;10.55;2.22;;;12.30;99.90;;;;;;5075582;22;20121;-70
2023/04/30 09:17:24;;;;;;;8.60;1.83;;;12.30;99.90;;;;;;5033220;28;20048;-70
2023/04/30 09:19:51;;;;;;;7.72;1.80;;;12.40;99.90;;;;;;5032063;28;20097;-70
2023/04/30 09:22:23;;;;;;;9.80;2.05;;;12.50;99.90;;;;;;5059788;28;20211;-70
2023/04/30 09:24:50;;;;;;;5.80;1.80;;;12.60;99.90;;;;;;5033121;28;20076;-69
2023/04/30 09:27:17;;;;;;;6.63;1.90;;;12.70;99.90;;;;;;5028650;28;20063;-69
2023/04/30 09:29:44;;;;;;;5.05;1.65;;;12.70;99.90;;;;;;5032373;28;20049;-69
2023/04/30 09:32:10;;;;;;;5.78;2.67;;;12.80;99.90;;;;;;5034853;28;20253;-70
2023/04/30 09:34:36;;;;;;;6.05;2.08;;;12.90;99.90;;;;;;5010377;28;20045;-69
2023/04/30 09:37:02;;;;;;;6.25;2.30;;;12.90;99.90;;;;;;5030320;28;20055;-69
2023/04/30 09:39:29;;;;;;;4.78;1.50;;;13.00;99.90;;;;;;5026763;28;20063;-69
2023/04/30 09:42:08;;;;;;;4.45;2.08;;;13.00;99.90;;;;;;5033922;28;20033;-69
2023/04/30 09:44:39;;;;;;;5.45;1.40;;;13.10;99.90;;;;;;5025325;28;20051;-69
2023/04/30 09:47:11;;;;;;;6.18;1.67;;;13.20;99.90;;;;;;5041804;28;20040;-69
2023/04/30 09:49:39;;;;;;;3.67;1.52;;;13.30;99.90;;;;;;5031678;28;20445;-69
2023/04/30 09:52:06;;;;;;;5.88;1.92;;;13.30;99.90;;;;;;5029547;28;20049;-69
2023/04/30 09:54:32;;;;;;;7.65;1.98;;;13.40;99.90;;;;;;5007605;28;20060;-69
2023/04/30 09:57:00;;;;;;;6.73;2.03;;;13.50;99.90;;;;;;5042233;28;20067;-69
2023/04/30 09:59:30;;;;;;;6.57;2.42;;;13.60;99.90;;;;;;5028380;28;20041;-69
2023/04/30 10:01:59;;;;;;;4.20;1.52;;;13.60;99.90;;;;;;5039217;28;20041;-69
2023/04/30 10:04:36;;;;;;;10.32;2.40;;;13.70;99.90;;;;;;5037688;28;20048;-69
2023/04/30 10:07:07;;;;;;;4.20;1.45;;;13.80;99.90;;;;;;5027312;28;20123;-69
2023/04/30 10:09:39;;;;;;;4.03;1.50;;;13.90;99.90;;;;;;5025456;28;20041;-69
2023/04/30 10:12:12;;;;;;;5.53;1.50;;;13.90;99.90;;;;;;5050123;28;20096;-69
2023/04/30 10:14:40;;;;;;;3.03;1.55;;;13.90;99.90;;;;;;5028172;28;20090;-68
2023/04/30 10:17:17;;;;;;;9.10;1.58;;;13.90;99.90;;;;;;5014620;28;20073;-73
2023/04/30 10:19:46;;;;;;;7.05;2.33;;;14.10;99.90;;;;;;5020722;28;20084;-69
2023/04/30 10:22:13;;;;;;;2.90;1.30;;;14.30;99.90;;;;;;5031826;28;20090;-68
2023/04/30 10:24:39;;;;;;;6.70;1.70;;;14.40;99.90;;;;;;5032002;28;20044;-69
2023/04/30 10:27:07;;;;;;;4.68;1.23;;;14.50;99.90;;;;;;5032749;28;20065;-69
2023/04/30 10:29:32;;;;;;;6.40;1.60;;;14.70;99.90;;;;;;5036409;28;20067;-68
2023/04/30 10:32:00;;;;;;;4.90;2.03;;;14.90;99.90;;;;;;5049806;28;20040;-69
2023/04/30 10:34:40;;;;;;;4.25;1.85;;;14.90;99.90;;;;;;5028310;28;20045;-69
2023/04/30 10:37:27;;;;;;;5.22;1.27;;;14.90;99.90;;;;;;5039456;28;20040;-69
2023/04/30 10:39:53;;;;;;;6.47;1.60;;;14.90;99.90;;;;;;5024647;28;20045;-68
2023/04/30 10:42:21;;;;;;;6.30;1.83;;;15.00;99.90;;;;;;5043414;28;20399;-69
2023/04/30 10:44:47;;;;;;;3.13;1.33;;;15.10;99.90;;;;;;5045895;28;20048;-69
2023/04/30 10:47:15;;;;;;;4.18;1.73;;;15.30;99.90;;;;;;5035063;28;20409;-69
2023/04/30 10:49:47;;;;;;;3.15;1.23;;;15.30;99.90;;;;;;5050588;28;20171;-69
2023/04/30 10:52:12;;;;;;;4.88;2.33;;;15.40;99.90;;;;;;5056559;28;20142;-69
2023/04/30 10:54:40;;;;;;;4.97;2.00;;;15.50;99.90;;;;;;5036439;28;20123;-69
2023/04/30 10:57:13;;;;;;;7.55;2.33;;;15.60;99.90;;;;;;5049292;28;20052;-69
2023/04/30 11:00:15;;;;;;;3.15;1.55;;;15.70;99.90;;;;;;5031062;28;20039;-69
2023/04/30 11:02:47;;;;;;;6.00;3.33;;;15.70;99.90;;;;;;5031988;28;20041;-69
2023/04/30 11:05:14;;;;;;;2.22;1.50;;;15.60;99.90;;;;;;5026146;28;20135;-69
2023/04/30 11:07:48;;;;;;;3.10;0.90;;;15.60;99.90;;;;;;5031372;28;20051;-69
2023/04/30 11:10:14;;;;;;;3.45;1.02;;;15.70;99.90;;;;;;5032520;28;20091;-70
2023/04/30 11:12:50;;;;;;;3.58;1.30;;;15.90;99.90;;;;;;5028648;28;20056;-69
2023/04/30 11:15:21;;;;;;;4.53;1.45;;;16.10;99.90;;;;;;5047073;28;20099;-70
2023/04/30 11:17:48;;;;;;;3.22;1.13;;;16.20;99.90;;;;;;5030679;28;20089;-69
2023/04/30 11:20:20;;;;;;;3.05;1.40;;;16.30;99.90;;;;;;5027611;28;20055;-70
2023/04/30 11:22:48;;;;;;;4.10;1.40;;;16.40;99.90;;;;;;5043577;28;20479;-70
2023/04/30 11:25:18;;;;;;;2.05;1.10;;;16.50;99.90;;;;;;5030740;28;20418;-70
2023/04/30 11:27:44;;;;;;;5.75;2.38;;;16.40;99.90;;;;;;5034531;28;20131;-70
2023/04/30 11:30:15;;;;;;;3.60;0.82;;;16.40;99.90;;;;;;5049547;28;20548;-70
2023/04/30 11:32:47;;;;;;;2.65;0.95;;;16.40;99.90;;;;;;5051941;28;20094;-70
2023/04/30 11:35:17;;;;;;;2.05;0.85;;;16.40;99.90;;;;;;5026009;28;20064;-70
2023/04/30 11:37:43;;;;;;;1.55;0.80;;;16.40;99.90;;;;;;5022559;28;20764;-69
2023/04/30 11:40:13;;;;;;;3.97;1.15;;;16.50;99.90;;;;;;5039739;28;20399;-69
2023/04/30 11:42:40;;;;;;;1.70;0.93;;;16.60;99.90;;;;;;5048845;28;20033;-69
2023/04/30 11:45:16;;;;;;;2.28;0.88;;;16.70;99.90;;;;;;5036563;28;20333;-69
2023/04/30 11:47:55;;;;;;;1.90;0.77;;;16.80;99.90;;;;;;5031948;28;20072;-69
2023/04/30 11:50:33;;;;;;;1.48;0.63;;;16.90;99.90;;;;;;5039666;28;20083;-69
2023/04/30 11:53:04;;;;;;;1.25;0.70;;;17.00;99.90;;;;;;5048592;28;20037;-69
2023/04/30 11:55:32;;;;;;;1.17;0.68;;;17.10;99.90;;;;;;5048549;28;20048;-69
2023/04/30 11:57:58;;;;;;;1.95;1.00;;;17.20;99.90;;;;;;5055377;28;20076;-69
2023/04/30 12:00:30;;;;;;;1.88;0.77;;;17.40;99.90;;;;;;5029288;28;20037;-69
2023/04/30 12:02:58;;;;;;;2.30;1.27;;;17.50;99.90;;;;;;5031610;28;20174;-70
2023/04/30 12:05:26;;;;;;;1.63;0.68;;;17.50;99.90;;;;;;5035011;28;20385;-69
2023/04/30 12:07:56;;;;;;;1.63;0.63;;;17.60;99.90;;;;;;5042778;28;20037;-69
2023/04/30 12:10:24;;;;;;;2.38;0.60;;;17.70;99.90;;;;;;5026958;28;20045;-69
2023/04/30 12:12:51;;;;;;;2.17;0.90;;;17.80;99.90;;;;;;5043500;28;20048;-69
2023/04/30 12:17:45;;;;;;;2.90;1.00;;;18.00;99.90;;;;;;5021131;28;20151;-68
2023/04/30 12:20:15;;;;;;;1.80;0.90;;;18.00;99.90;;;;;;5014579;28;20053;-68
2023/04/30 12:22:42;;;;;;;2.55;0.70;;;18.00;99.90;;;;;;5018514;28;20090;-68
2023/04/30 12:25:13;;;;;;;2.22;0.65;;;18.00;99.90;;;;;;5014177;28;20477;-67
2023/04/30 12:27:45;;;;;;;2.75;0.65;;;18.10;99.90;;;;;;5022504;28;20111;-68
2023/04/30 12:30:12;;;;;;;2.25;0.88;;;18.20;99.90;;;;;;5014792;28;20140;-68
2023/04/30 12:32:44;;;;;;;1.83;0.82;;;18.30;99.90;;;;;;5018152;28;20033;-68
2023/04/30 12:35:31;;;;;;;1.40;0.70;;;18.40;99.90;;;;;;5021213;28;20057;-68
2023/04/30 12:38:05;;;;;;;3.10;1.00;;;18.50;99.90;;;;;;5038114;28;20085;-69
2023/04/30 12:40:31;;;;;;;1.92;0.98;;;18.50;99.20;;;;;;4998942;28;20065;-69
2023/04/30 12:43:06;;;;;;;1.50;0.70;;;18.60;99.50;;;;;;5000547;28;20042;-69
2023/04/30 12:45:51;;;;;;;6.53;1.15;;;18.70;98.50;;;;;;5011348;28;20037;-69
2023/04/30 12:48:19;;;;;;;3.35;0.88;;;18.70;98.60;;;;;;5016481;28;20446;-68
2023/04/30 12:50:55;;;;;;;3.97;0.70;;;18.80;98.70;;;;;;5005970;28;20491;-68
2023/04/30 12:53:22;;;;;;;2.20;0.90;;;18.90;98.10;;;;;;5020512;28;20038;-69
2023/04/30 12:56:11;;;;;;;4.40;1.05;;;19.00;98.20;;;;;;5022822;28;20144;-76
2023/04/30 12:58:38;;;;;;;3.17;1.00;;;19.00;97.20;;;;;;5024856;28;20034;-68
2023/04/30 13:01:05;;;;;;;2.10;0.85;;;19.00;97.40;;;;;;5000767;28;20052;-69
2023/04/30 13:03:31;;;;;;;3.08;0.90;;;19.00;96.50;;;;;;5007012;28;20042;-68
2023/04/30 13:05:57;;;;;;;4.10;1.02;;;19.00;96.10;;;;;;5017332;28;20038;-68
2023/04/30 13:08:23;;;;;;;2.75;1.00;;;18.80;95.50;;;;;;5024756;28;20494;-68
2023/04/30 13:10:58;;;;;;;;;;;18.70;95.60;;;;;;5017193;28;20675;-69
2023/04/30 13:13:23;;;;;;;4.88;1.13;;;18.60;94.30;;;;;;5016708;28;20000;-69
2023/04/30 13:15:49;;;;;;;5.35;1.23;;;18.70;96.10;;;;;;5021339;28;20037;-70
2023/04/30 13:18:15;;;;;;;2.05;1.02;;;18.80;95.90;;;;;;5023391;28;20580;-76
2023/04/30 13:20:42;;;;;;;4.18;1.50;;;18.90;95.50;;;;;;5014205;28;20091;-68
2023/04/30 13:23:08;;;;;;;2.40;1.23;;;19.00;95.50;;;;;;5014406;28;20104;-70
2023/04/30 13:25:35;;;;;;;4.40;1.00;;;19.10;94.90;;;;;;5017504;28;20471;-69
2023/04/30 13:28:01;;;;;;;3.15;0.95;;;19.10;94.40;;;;;;5015739;28;20114;-68
2023/04/30 13:30:29;;;;;;;2.75;1.02;;;19.20;94.50;;;;;;5018974;28;20054;-68
2023/04/30 13:32:55;;;;;;;2.72;0.82;;;19.20;93.90;;;;;;5003657;28;20050;-68
2023/04/30 13:35:28;;;;;;;2.05;1.10;;;19.30;94.10;;;;;;5017747;28;20049;-68
2023/04/30 13:37:58;;;;;;;2.92;1.00;;;19.40;94.20;;;;;;5013244;28;20064;-69
2023/04/30 13:40:24;;;;;;;1.65;0.80;;;19.40;93.00;;;;;;5014101;28;20118;-68
2023/04/30 13:42:50;;;;;;;2.60;1.10;;;19.50;92.40;;;;;;5015447;28;20046;-68
2023/04/30 13:45:16;;;;;;;1.50;0.75;;;19.60;92.60;;;;;;5023058;28;20046;-69
2023/04/30 13:47:42;;;;;;;2.83;1.10;;;19.80;92.50;;;;;;5000060;28;20060;-70
2023/04/30 13:50:08;;;;;;;0.90;0.43;;;19.80;91.60;;;;;;5012582;28;20045;-74
2023/04/30 13:52:36;;;;;;;2.80;0.95;;;19.90;91.20;;;;;;5017772;28;20045;-68